Sullivan, Indiana
Current Conditions -  °F | °C
As of 9:35 PM on Thursday 20 Nov 2014 (Local Time) from KRSV Reporting Station
Clear Clear  
Wind Chill: 12°   Ceiling: Unl
Heat Index: 20°   Visibility: 10mi
Dew Point: 16°   Wind: 6mph
Humidity: 85%   Direction: 270°W
Pressure: 30.29"   Gusts: NA
Location:  39.1°N, 87.41°W
Report Text: KRSV 210235Z AUTO 27005KT 10SM CLR M07/M09 A3029 RMK AO2 T10661088
Loading
Personal Weather Stations






























Interactive Weather Map New forecast layout! Learn more

10-Day Weather Forecast

Advertisements
Track Severe Weather on mobile